Bayport, New York
Current Conditions -  °F | °C
As of 12:56 AM on Thursday 23 Oct 2014 (Local Time) from KISP Reporting Station
Overcast Overcast  
Wind Chill: 53°   Ceiling: 1900
Heat Index: 53°   Visibility: 10mi
Dew Point: 48°   Wind: 28mph
Humidity: 83%   Direction: 20°NNE
Pressure: 29.65"   Gusts: 38mph
Location:  40.74°N, 73.06°W
Report Text: KISP 230456Z AUTO 02024G33KT 10SM OVC019 12/09 A2965 RMK AO2 PK WND 02033/0455 SLP041 T01170089 401500106
Loading
Personal Weather Stations






























Interactive Weather Map
Tropical Storm Tracking
New forecast layout! Learn more

10-Day Weather Forecast

Advertisements
Track Severe Weather on mobile